Time;durP1;ratioP1;P1;durP2;ratioP2;P2;SDS_P1;SDS_P2;PMS_P1;PMS_P2;Temp;Humidity;BMP_temperature;BMP_pressure;BME280_temperature;BME280_humidity;BME280_pressure;Samples;Min_cycle;Max_cycle;Signal;HPM_P1;HPM_P2
2022/09/24 00:00:51;;;;;;;11.23;7.17;;;;;;;10.36;100.00;95990.59;5058651;28;20923;-75
2022/09/24 00:03:22;;;;;;;10.40;6.63;;;;;;;10.37;100.00;95986.97;5042263;28;20079;-75
2022/09/24 00:05:48;;;;;;;11.07;7.20;;;;;;;10.25;100.00;95990.84;5058151;28;20539;-75
2022/09/24 00:08:15;;;;;;;9.27;6.53;;;;;;;10.23;100.00;95984.09;5058613;28;20043;-75
2022/09/24 00:10:44;;;;;;;10.00;7.07;;;;;;;10.13;100.00;95987.72;5062791;28;20064;-75
2022/09/24 00:13:13;;;;;;;13.27;7.03;;;;;;;10.13;100.00;95989.53;5066155;28;20025;-75
2022/09/24 00:15:43;;;;;;;11.40;7.43;;;;;;;10.15;100.00;95969.16;5064148;28;20052;-75
2022/09/24 00:18:10;;;;;;;11.90;7.17;;;;;;;10.12;100.00;95980.81;5048038;28;20121;-74
2022/09/24 00:20:38;;;;;;;9.37;6.40;;;;;;;10.18;100.00;95979.34;5064998;28;20623;-76
2022/09/24 00:23:05;;;;;;;11.40;7.00;;;;;;;10.22;100.00;95977.22;5055664;28;20088;-75
2022/09/24 00:28:15;;;;;;;9.33;6.63;;;;;;;9.98;100.00;95978.84;5058219;28;20032;-74
2022/09/24 00:30:43;;;;;;;9.87;7.10;;;;;;;9.99;100.00;95971.78;5065179;28;20715;-76
2022/09/24 00:33:10;;;;;;;10.33;6.40;;;;;;;10.03;100.00;95968.69;5065034;28;20063;-76
2022/09/24 00:35:40;;;;;;;11.33;6.60;;;;;;;9.98;100.00;95970.13;5062930;28;20043;-75
2022/09/24 00:38:05;;;;;;;10.00;6.83;;;;;;;9.85;100.00;95967.97;5061359;28;20461;-75
2022/09/24 00:40:34;;;;;;;11.80;6.80;;;;;;;9.84;100.00;95961.09;5057136;28;20103;-76
2022/09/24 00:43:00;;;;;;;9.57;6.37;;;;;;;9.80;100.00;95962.41;5064068;28;20035;-75
2022/09/24 00:45:29;;;;;;;11.63;6.20;;;;;;;9.84;100.00;95954.03;5055724;28;20118;-75
2022/09/24 00:47:57;;;;;;;10.63;6.93;;;;;;;9.82;100.00;95949.91;5064416;28;20055;-76
2022/09/24 00:50:33;;;;;;;8.27;5.53;;;;;;;9.91;100.00;95954.19;5058237;28;20079;-75
2022/09/24 00:53:03;;;;;;;12.00;6.47;;;;;;;9.94;100.00;95948.63;5060122;28;20397;-75
2022/09/24 00:55:32;;;;;;;10.00;6.47;;;;;;;10.09;100.00;95946.16;5061750;28;20159;-75
2022/09/24 00:58:04;;;;;;;11.60;6.47;;;;;;;10.02;100.00;95932.84;5063782;28;20040;-75
2022/09/24 01:00:31;;;;;;;8.40;5.87;;;;;;;10.08;100.00;95926.13;5063212;28;20161;-74
2022/09/24 01:03:08;;;;;;;10.97;7.30;;;;;;;10.10;100.00;95921.56;5056275;28;20033;-75
2022/09/24 01:05:37;;;;;;;12.23;8.73;;;;;;;10.05;100.00;95919.41;5065974;28;20036;-74
2022/09/24 01:08:03;;;;;;;11.50;8.07;;;;;;;9.93;100.00;95918.09;5063331;28;20045;-75
2022/09/24 01:10:46;;;;;;;11.80;8.37;;;;;;;9.88;100.00;95921.19;5065744;28;20550;-75
2022/09/24 01:13:47;;;;;;;11.30;7.78;;;;;;;9.89;100.00;95917.59;5063394;28;20040;-75
2022/09/24 01:16:28;;;;;;;10.20;7.20;;;;;;;9.74;100.00;95918.41;5061808;28;20064;-75
2022/09/24 01:19:03;;;;;;;10.67;7.17;;;;;;;9.75;100.00;95920.84;5058908;28;20020;-75
2022/09/24 01:21:37;;;;;;;11.17;8.20;;;;;;;9.78;100.00;95914.44;5054902;28;20047;-75
2022/09/24 01:24:34;;;;;;;9.63;6.50;;;;;;;9.87;100.00;95916.13;5067591;28;20032;-74
2022/09/24 01:27:23;;;;;;;10.23;7.13;;;;;;;9.74;100.00;95913.97;5067704;28;20044;-74
2022/09/24 01:30:04;;;;;;;11.67;7.43;;;;;;;9.79;100.00;95911.69;5061732;28;20033;-75
2022/09/24 01:32:40;;;;;;;14.20;8.43;;;;;;;9.64;100.00;95913.28;5068312;28;20036;-74
2022/09/24 01:35:24;;;;;;;12.00;8.20;;;;;;;9.71;100.00;95902.97;5065970;28;20175;-75
2022/09/24 01:38:05;;;;;;;10.27;8.17;;;;;;;9.70;100.00;95899.50;5060629;28;20036;-75
2022/09/24 01:40:31;;;;;;;12.87;8.07;;;;;;;9.66;100.00;95906.91;5061368;28;20033;-75
2022/09/24 01:42:58;;;;;;;11.93;7.30;;;;;;;9.75;100.00;95897.22;5067643;28;20036;-75
2022/09/24 01:45:30;;;;;;;11.37;7.70;;;;;;;9.64;100.00;95900.97;5067364;28;20032;-75
2022/09/24 01:47:59;;;;;;;9.67;7.23;;;;;;;9.76;100.00;95892.78;5060762;28;20047;-75
2022/09/24 01:50:27;;;;;;;11.90;8.10;;;;;;;9.76;100.00;95880.50;5065441;28;20055;-75
2022/09/24 01:53:05;;;;;;;13.63;8.63;;;;;;;9.77;100.00;95883.94;5057663;28;20028;-74
2022/09/24 01:55:44;;;;;;;11.03;7.87;;;;;;;9.67;100.00;95886.72;5039293;28;20044;-75
2022/09/24 01:58:16;;;;;;;11.43;8.27;;;;;;;9.61;100.00;95879.47;5062170;28;20048;-75
2022/09/24 02:00:46;;;;;;;13.43;9.10;;;;;;;9.65;100.00;95873.72;5060302;28;20075;-74
2022/09/24 02:03:15;;;;;;;10.77;8.23;;;;;;;9.55;100.00;95875.69;5069920;28;20051;-74
2022/09/24 02:05:49;;;;;;;12.23;7.93;;;;;;;9.52;100.00;95868.13;5070762;28;20081;-75
2022/09/24 02:08:22;;;;;;;9.60;8.13;;;;;;;9.53;100.00;95872.41;5071490;28;20020;-75
2022/09/24 02:10:56;;;;;;;8.95;6.68;;;;;;;9.47;100.00;95873.06;5063153;28;20055;-75
2022/09/24 02:13:26;;;;;;;9.87;7.33;;;;;;;9.52;100.00;95870.75;5071253;28;20036;-75
2022/09/24 02:15:58;;;;;;;11.30;7.80;;;;;;;9.44;100.00;95871.56;5065460;28;20728;-75
2022/09/24 02:18:32;;;;;;;11.60;7.70;;;;;;;9.38;100.00;95871.38;5071463;28;20040;-75
2022/09/24 02:21:02;;;;;;;9.70;7.20;;;;;;;9.29;100.00;95872.34;5064760;28;20037;-75
2022/09/24 02:23:30;;;;;;;10.33;8.23;;;;;;;9.23;100.00;95873.00;5067731;28;20446;-75
2022/09/24 02:25:58;;;;;;;11.07;7.83;;;;;;;9.21;100.00;95873.16;5058802;28;20032;-75
2022/09/24 02:28:25;;;;;;;12.80;8.83;;;;;;;9.26;100.00;95880.56;5068749;28;20020;-74
2022/09/24 02:30:58;;;;;;;11.07;8.23;;;;;;;9.29;100.00;95873.19;5066978;28;20044;-74
2022/09/24 02:36:10;;;;;;;11.03;8.00;;;;;;;9.36;100.00;95868.13;5069328;28;20068;-75
2022/09/24 02:38:37;;;;;;;10.53;8.70;;;;;;;9.33;100.00;95869.25;5067059;28;20082;-75
2022/09/24 02:41:04;;;;;;;9.90;7.27;;;;;;;9.34;100.00;95864.81;5069143;28;20033;-75
2022/09/24 02:43:29;;;;;;;11.17;7.97;;;;;;;9.36;100.00;95863.69;5049910;28;20094;-75
2022/09/24 02:45:55;;;;;;;11.93;7.80;;;;;;;9.37;100.00;95861.88;5046950;28;20445;-75
2022/09/24 02:48:20;;;;;;;11.40;8.23;;;;;;;9.30;100.00;95869.56;5053961;28;20448;-75
2022/09/24 02:50:46;;;;;;;12.13;8.47;;;;;;;9.21;100.00;95870.53;5068917;28;20048;-75
2022/09/24 02:53:12;;;;;;;10.20;7.67;;;;;;;9.19;100.00;95868.06;5061997;28;20020;-75
2022/09/24 02:55:38;;;;;;;12.97;8.73;;;;;;;9.28;100.00;95866.28;5052233;28;20037;-75
2022/09/24 02:58:03;;;;;;;11.67;7.77;;;;;;;9.30;100.00;95876.63;5068883;28;20032;-75
2022/09/24 03:00:29;;;;;;;12.53;8.67;;;;;;;9.27;100.00;95874.31;5060897;28;20029;-75
2022/09/24 03:02:54;;;;;;;16.83;10.57;;;;;;;9.30;100.00;95871.38;5065309;28;20028;-75
2022/09/24 03:05:20;;;;;;;12.50;7.30;;;;;;;9.34;100.00;95864.81;5068401;28;20033;-76
2022/09/24 03:07:46;;;;;;;11.87;8.57;;;;;;;9.37;100.00;95854.81;5067165;28;20034;-74
2022/09/24 03:10:12;;;;;;;11.77;8.47;;;;;;;9.34;100.00;95849.91;5062030;28;20029;-75
2022/09/24 03:12:37;;;;;;;11.87;7.97;;;;;;;9.34;100.00;95860.38;5066183;28;20058;-75
2022/09/24 03:15:03;;;;;;;14.07;10.07;;;;;;;9.32;100.00;95867.63;5062394;28;20051;-75
2022/09/24 03:17:29;;;;;;;12.00;8.70;;;;;;;9.38;100.00;95876.63;5054513;28;20079;-75
2022/09/24 03:19:55;;;;;;;16.87;11.13;;;;;;;9.33;100.00;95873.69;5055276;28;20670;-74
2022/09/24 03:22:21;;;;;;;14.07;10.00;;;;;;;9.16;100.00;95873.63;5050080;28;20060;-74
2022/09/24 03:24:46;;;;;;;12.80;9.67;;;;;;;9.11;100.00;95881.16;5058849;28;20029;-74
2022/09/24 03:27:12;;;;;;;24.50;15.50;;;;;;;9.03;100.00;95875.88;5061530;28;20520;-74
2022/09/24 03:32:22;;;;;;;19.10;13.63;;;;;;;9.02;100.00;95876.88;5058418;28;20063;-75
2022/09/24 03:34:48;;;;;;;15.87;11.40;;;;;;;9.11;100.00;95870.66;5067363;28;20028;-75
2022/09/24 03:37:13;;;;;;;12.93;9.97;;;;;;;9.15;100.00;95864.13;5066740;28;20032;-74
2022/09/24 03:39:39;;;;;;;15.60;12.20;;;;;;;9.14;100.00;95865.09;5066650;28;20036;-74
2022/09/24 03:42:05;;;;;;;13.10;10.57;;;;;;;9.11;100.00;95859.34;5049527;28;20493;-75
2022/09/24 03:44:30;;;;;;;14.33;10.40;;;;;;;9.11;100.00;95849.66;5066366;28;20028;-75
2022/09/24 03:46:56;;;;;;;11.43;8.70;;;;;;;9.13;100.00;95847.72;5059040;28;20027;-75
2022/09/24 03:49:22;;;;;;;13.53;10.10;;;;;;;9.06;100.00;95838.03;5066172;28;20067;-74
2022/09/24 03:51:49;;;;;;;11.10;9.20;;;;;;;9.08;100.00;95836.88;5062027;28;20030;-74
2022/09/24 03:54:15;;;;;;;12.23;8.53;;;;;;;9.16;100.00;95841.34;5058631;28;20028;-75
2022/09/24 03:56:42;;;;;;;13.83;9.13;;;;;;;9.14;100.00;95838.84;5065872;28;20512;-75
2022/09/24 03:59:10;;;;;;;13.67;9.63;;;;;;;9.08;100.00;95839.50;5052414;28;20033;-75
2022/09/24 04:01:36;;;;;;;13.83;8.87;;;;;;;9.16;100.00;95850.03;5065493;28;20039;-75
2022/09/24 04:04:05;;;;;;;14.20;9.40;;;;;;;9.24;100.00;95840.53;5053559;28;20033;-75
2022/09/24 04:06:31;;;;;;;12.70;8.90;;;;;;;9.30;100.00;95837.28;5049658;28;20164;-74
2022/09/24 04:08:57;;;;;;;11.57;8.43;;;;;;;9.33;100.00;95832.50;5066048;28;20494;-75
2022/09/24 04:11:23;;;;;;;13.53;9.10;;;;;;;9.21;100.00;95829.38;5066767;28;20094;-75
2022/09/24 04:13:50;;;;;;;13.67;9.23;;;;;;;9.33;100.00;95831.69;5058785;28;20021;-75
2022/09/24 04:16:16;;;;;;;14.13;9.43;;;;;;;9.45;100.00;95825.94;5058288;28;20036;-75
2022/09/24 04:18:41;;;;;;;13.10;9.77;;;;;;;9.51;100.00;95824.50;5066689;28;20067;-75
2022/09/24 04:21:07;;;;;;;13.07;9.67;;;;;;;9.54;100.00;95821.53;5065743;28;20475;-75
2022/09/24 04:23:33;;;;;;;15.33;10.33;;;;;;;9.57;100.00;95826.47;5056824;28;20036;-76
2022/09/24 04:26:00;;;;;;;13.67;8.50;;;;;;;9.53;100.00;95824.34;5055752;28;20040;-74
2022/09/24 04:28:27;;;;;;;14.03;8.77;;;;;;;9.60;100.00;95820.09;5059537;28;20033;-75
2022/09/24 04:30:53;;;;;;;17.00;9.97;;;;;;;9.61;100.00;95817.28;5065746;28;20060;-75
2022/09/24 04:33:18;;;;;;;13.37;10.03;;;;;;;9.45;100.00;95822.50;5065567;28;20063;-75
2022/09/24 04:35:44;;;;;;;14.33;9.20;;;;;;;9.36;100.00;95823.50;5049348;28;20241;-75
2022/09/24 04:38:10;;;;;;;14.07;9.40;;;;;;;9.37;100.00;95831.19;5068392;28;20024;-75
2022/09/24 04:40:36;;;;;;;12.40;9.30;;;;;;;9.50;100.00;95827.28;5057855;28;20089;-76
2022/09/24 04:43:03;;;;;;;12.10;9.23;;;;;;;9.42;100.00;95830.72;5043728;28;20064;-75
2022/09/24 04:45:28;;;;;;;13.27;9.57;;;;;;;9.44;100.00;95826.13;5055526;28;20691;-75
2022/09/24 04:47:57;;;;;;;14.33;9.53;;;;;;;9.41;100.00;95827.28;5062162;28;20029;-75
2022/09/24 04:50:25;;;;;;;12.70;8.70;;;;;;;9.37;100.00;95818.09;5066997;28;20541;-75
2022/09/24 04:52:52;;;;;;;13.13;9.23;;;;;;;9.36;100.00;95826.94;5060538;28;20033;-75
2022/09/24 04:55:19;;;;;;;14.37;9.40;;;;;;;9.33;100.00;95823.81;5059044;28;20083;-75
2022/09/24 04:57:45;;;;;;;12.23;9.63;;;;;;;9.24;100.00;95822.97;5070022;28;20024;-75
2022/09/24 05:00:16;;;;;;;12.07;8.73;;;;;;;9.30;100.00;95824.16;5052669;28;20504;-76
2022/09/24 05:02:42;;;;;;;13.50;10.47;;;;;;;9.21;100.00;95816.25;5069097;28;20032;-75
2022/09/24 05:05:10;;;;;;;13.23;10.53;;;;;;;9.26;100.00;95807.09;5069231;28;20041;-75
2022/09/24 05:07:36;;;;;;;16.67;10.37;;;;;;;9.32;100.00;95809.03;5067141;28;20036;-76
2022/09/24 05:10:02;;;;;;;15.77;10.87;;;;;;;9.26;100.00;95814.97;5064053;28;20401;-75
2022/09/24 05:12:28;;;;;;;16.67;9.23;;;;;;;9.14;100.00;95811.81;5072594;28;20107;-75
2022/09/24 05:14:54;;;;;;;14.03;9.80;;;;;;;9.19;100.00;95812.97;5062460;28;20123;-75
2022/09/24 05:17:20;;;;;;;15.37;10.60;;;;;;;9.17;100.00;95809.69;5065803;28;20089;-75
2022/09/24 05:19:46;;;;;;;14.20;10.63;;;;;;;9.14;100.00;95804.75;5069418;28;20032;-75
2022/09/24 05:22:11;;;;;;;15.03;10.67;;;;;;;9.13;100.00;95811.00;5063271;28;20051;-75
2022/09/24 05:24:37;;;;;;;17.00;10.40;;;;;;;9.12;100.00;95811.97;5053791;28;20044;-75
2022/09/24 05:27:09;;;;;;;13.60;10.47;;;;;;;9.17;100.00;95812.31;5054523;28;20070;-75
2022/09/24 05:29:42;;;;;;;15.60;10.47;;;;;;;9.16;100.00;95823.78;5062115;28;20052;-75
2022/09/24 05:32:10;;;;;;;17.00;10.50;;;;;;;9.21;100.00;95829.38;5061668;28;20044;-75
2022/09/24 05:34:36;;;;;;;16.53;10.57;;;;;;;9.22;100.00;95832.81;5050038;28;20059;-74
2022/09/24 05:37:02;;;;;;;15.43;11.13;;;;;;;9.29;100.00;95830.34;5067860;28;20037;-74
2022/09/24 05:39:29;;;;;;;18.47;11.93;;;;;;;9.43;100.00;95832.38;5063787;28;20037;-74
2022/09/24 05:41:56;;;;;;;16.83;11.40;;;;;;;9.56;100.00;95834.53;5067931;28;20028;-75
2022/09/24 05:44:22;;;;;;;17.30;12.13;;;;;;;9.54;100.00;95839.91;5061699;28;20035;-75
2022/09/24 05:46:48;;;;;;;17.13;12.57;;;;;;;9.61;100.00;95840.91;5062052;28;20115;-75
2022/09/24 05:49:14;;;;;;;17.27;12.13;;;;;;;9.61;100.00;95835.66;5067715;28;20032;-75
2022/09/24 05:51:39;;;;;;;18.97;12.93;;;;;;;9.66;100.00;95830.75;5068489;28;20020;-75
2022/09/24 05:54:05;;;;;;;19.80;15.90;;;;;;;9.61;100.00;95830.41;5048880;28;20029;-75
2022/09/24 05:56:31;;;;;;;24.20;18.87;;;;;;;9.72;100.00;95828.44;5060452;28;20379;-75
2022/09/24 05:58:57;;;;;;;21.30;16.50;;;;;;;9.74;100.00;95829.13;5050643;28;20666;-75
2022/09/24 06:01:23;;;;;;;16.80;11.17;;;;;;;9.55;100.00;95836.31;5069107;28;20036;-76
2022/09/24 06:03:49;;;;;;;15.63;10.47;;;;;;;9.59;100.00;95835.03;5056598;28;20027;-75
2022/09/24 06:06:15;;;;;;;13.60;10.60;;;;;;;9.72;100.00;95833.69;5068961;28;20085;-75
2022/09/24 06:08:40;;;;;;;13.00;9.70;;;;;;;9.82;100.00;95836.97;5073047;28;20028;-74
2022/09/24 06:11:07;;;;;;;18.93;10.10;;;;;;;9.70;100.00;95843.56;5064426;28;20367;-75
2022/09/24 06:13:33;;;;;;;12.57;10.17;;;;;;;9.76;100.00;95840.25;5064454;28;20036;-74
2022/09/24 06:16:05;;;;;;;13.73;11.07;;;;;;;9.91;100.00;95843.88;5068986;28;20182;-75
2022/09/24 06:18:33;;;;;;;18.47;10.33;;;;;;;10.00;100.00;95839.47;5068319;28;20032;-75
2022/09/24 06:21:02;;;;;;;16.40;10.77;;;;;;;10.16;100.00;95834.19;5069661;28;20127;-75
2022/09/24 06:23:29;;;;;;;16.47;11.40;;;;;;;10.24;100.00;95835.97;5060606;28;20398;-75
2022/09/24 06:25:56;;;;;;;13.27;10.60;;;;;;;10.34;100.00;95837.47;5063802;28;20090;-75
2022/09/24 06:28:21;;;;;;;15.37;10.80;;;;;;;10.46;100.00;95835.31;5052473;28;20040;-75
2022/09/24 06:30:47;;;;;;;17.30;12.40;;;;;;;10.53;100.00;95835.44;5042315;28;20035;-75
2022/09/24 06:33:13;;;;;;;15.30;11.57;;;;;;;10.67;100.00;95842.66;5047989;28;20054;-75
2022/09/24 06:35:41;;;;;;;14.10;11.43;;;;;;;10.85;100.00;95831.88;5063298;28;20042;-74
2022/09/24 06:38:10;;;;;;;14.03;11.93;;;;;;;10.98;100.00;95837.41;5058889;28;20036;-75
2022/09/24 06:40:37;;;;;;;22.07;13.80;;;;;;;10.99;100.00;95832.97;5067370;28;20020;-75
2022/09/24 06:43:08;;;;;;;15.43;10.60;;;;;;;10.83;100.00;95837.34;5050243;28;20559;-75
2022/09/24 06:45:34;;;;;;;11.80;8.57;;;;;;;10.81;100.00;95838.47;5048234;28;20499;-76
2022/09/24 06:48:02;;;;;;;12.00;9.13;;;;;;;11.05;100.00;95835.75;5068378;28;20032;-76
2022/09/24 06:50:30;;;;;;;13.03;9.83;;;;;;;11.21;100.00;95834.03;5069458;28;20027;-75
2022/09/24 06:52:57;;;;;;;12.03;9.03;;;;;;;11.27;100.00;95836.78;5070195;28;20486;-75
2022/09/24 06:55:23;;;;;;;13.40;9.07;;;;;;;11.17;100.00;95836.19;5053910;28;20125;-75
2022/09/24 06:57:49;;;;;;;11.77;9.07;;;;;;;11.05;100.00;95840.19;5066878;28;20535;-77
2022/09/24 07:00:15;;;;;;;12.40;9.10;;;;;;;11.05;100.00;95841.00;5062756;28;20032;-76
2022/09/24 07:02:42;;;;;;;13.43;9.70;;;;;;;11.34;100.00;95844.81;5038534;28;20028;-76
2022/09/24 07:05:08;;;;;;;11.97;8.70;;;;;;;11.49;100.00;95848.34;5015593;28;20840;-75
2022/09/24 07:07:35;;;;;;;14.47;10.43;;;;;;;11.56;100.00;95854.53;5015023;28;20062;-76
2022/09/24 07:10:03;;;;;;;14.83;10.77;;;;;;;11.66;100.00;95845.59;5016566;28;20032;-76
2022/09/24 07:12:30;;;;;;;14.67;10.33;;;;;;;11.90;100.00;95842.81;5034222;28;20066;-76
2022/09/24 07:14:56;;;;;;;21.63;13.60;;;;;;;11.99;100.00;95847.00;5024302;28;20036;-77
2022/09/24 07:17:23;;;;;;;22.17;15.10;;;;;;;12.34;100.00;95847.38;5022550;28;20131;-76
2022/09/24 07:19:49;;;;;;;19.70;14.50;;;;;;;12.56;100.00;95843.03;5056987;28;20033;-76
2022/09/24 07:22:17;;;;;;;13.13;10.20;;;;;;;12.76;100.00;95840.66;5048500;28;20033;-76
2022/09/24 07:24:43;;;;;;;13.93;10.10;;;;;;;13.05;100.00;95828.47;5064838;28;20198;-76
2022/09/24 07:27:09;;;;;;;14.13;9.43;;;;;;;13.42;100.00;95827.50;5036818;28;20032;-76
2022/09/24 07:29:35;;;;;;;15.50;9.67;;;;;;;13.50;100.00;95832.66;5058000;28;20024;-76
2022/09/24 07:32:02;;;;;;;15.93;9.47;;;;;;;13.47;100.00;95832.22;5055852;28;20532;-76
2022/09/24 07:34:28;;;;;;;11.67;9.17;;;;;;;13.41;100.00;95842.53;5058881;28;20028;-76
2022/09/24 07:36:55;;;;;;;14.00;8.93;;;;;;;13.33;100.00;95842.63;5062764;28;20039;-76
2022/09/24 07:39:22;;;;;;;11.00;9.10;;;;;;;13.36;100.00;95844.91;5060209;28;20036;-76
2022/09/24 07:41:47;;;;;;;12.03;9.27;;;;;;;13.33;100.00;95844.47;5056235;28;20027;-76
2022/09/24 07:44:13;;;;;;;12.73;9.03;;;;;;;13.31;100.00;95839.38;5042596;28;20221;-76
2022/09/24 07:46:39;;;;;;;11.57;8.90;;;;;;;13.48;100.00;95844.41;5042129;28;20070;-76
2022/09/24 07:49:05;;;;;;;11.93;9.30;;;;;;;13.63;100.00;95842.56;5039010;28;20044;-76
2022/09/24 07:51:31;;;;;;;10.40;8.33;;;;;;;13.51;100.00;95849.31;5040254;28;20036;-76
2022/09/24 07:53:57;;;;;;;13.43;9.23;;;;;;;13.61;100.00;95848.00;5056270;28;20031;-76
2022/09/24 07:56:23;;;;;;;11.10;8.17;;;;;;;13.78;100.00;95853.06;5043185;28;20067;-76
2022/09/24 07:58:52;;;;;;;9.70;8.07;;;;;;;13.56;100.00;95854.88;5041843;28;20032;-76
2022/09/24 08:01:19;;;;;;;10.43;7.77;;;;;;;13.73;100.00;95860.75;5024352;28;20081;-76
2022/09/24 08:03:45;;;;;;;12.73;9.63;;;;;;;13.38;100.00;95865.84;5038963;28;20036;-76
2022/09/24 08:06:12;;;;;;;13.20;8.40;;;;;;;13.60;100.00;95866.69;5042512;28;20037;-75
2022/09/24 08:08:38;;;;;;;11.00;8.67;;;;;;;13.49;100.00;95859.28;5042485;28;20024;-76
2022/09/24 08:11:09;;;;;;;10.87;7.87;;;;;;;13.59;100.00;95857.16;5040649;28;20032;-76
2022/09/24 08:13:35;;;;;;;12.90;8.13;;;;;;;13.66;100.00;95858.84;5048676;28;20154;-76
2022/09/24 08:16:03;;;;;;;16.63;9.03;;;;;;;13.62;100.00;95862.06;5039051;28;20027;-75
2022/09/24 08:18:30;;;;;;;12.60;8.73;;;;;;;13.57;100.00;95869.72;5053204;28;20053;-76
2022/09/24 08:21:05;;;;;;;12.43;8.10;;;;;;;13.52;100.00;95872.94;5054762;28;20383;-76
2022/09/24 08:23:33;;;;;;;9.53;7.90;;;;;;;13.56;100.00;95874.19;5055352;28;20029;-76
2022/09/24 08:25:59;;;;;;;10.77;8.20;;;;;;;13.44;100.00;95871.19;5060670;28;20113;-76
2022/09/24 08:28:27;;;;;;;9.83;8.10;;;;;;;13.47;100.00;95870.00;5061825;28;20033;-77
2022/09/24 08:31:00;;;;;;;9.90;7.37;;;;;;;13.69;100.00;95873.50;5065222;28;20074;-76
2022/09/24 08:33:26;;;;;;;;;;;;;;;13.63;100.00;95869.78;5072611;28;20039;-78
2022/09/24 08:35:52;;;;;;;11.67;7.73;;;;;;;13.58;100.00;95871.34;5071262;28;19916;-76
2022/09/24 08:38:19;;;;;;;12.17;7.63;;;;;;;13.51;100.00;95881.03;5073166;28;20028;-77
2022/09/24 08:40:55;;;;;;;10.67;7.60;;;;;;;13.58;100.00;95877.47;5072187;28;20021;-76
2022/09/24 08:43:49;;;;;;;13.57;8.30;;;;;;;13.26;100.00;95878.72;5065814;28;20032;-76
2022/09/24 08:49:23;;;;;;;12.37;8.40;;;;;;;13.41;100.00;95882.16;5066057;28;20485;-76
2022/09/24 08:52:25;;;;;;;10.50;7.37;;;;;;;13.85;100.00;95883.03;5049395;28;20054;-76
2022/09/24 08:54:53;;;;;;;13.40;7.73;;;;;;;13.91;100.00;95893.66;5059750;28;20040;-76
2022/09/24 08:57:20;;;;;;;10.87;7.80;;;;;;;13.67;100.00;95894.00;5060988;28;20025;-76
2022/09/24 08:59:51;;;;;;;9.67;7.33;;;;;;;13.70;100.00;95895.47;5060761;28;20033;-77
2022/09/24 09:02:36;;;;;;;13.17;8.00;;;;;;;13.69;100.00;95899.94;5025692;28;20044;-76
2022/09/24 09:05:26;;;;;;;12.97;8.13;;;;;;;13.69;100.00;95902.59;5058120;28;20028;-76
2022/09/24 09:08:12;;;;;;;10.60;7.63;;;;;;;13.66;100.00;95905.59;5035101;28;20032;-77
2022/09/24 09:10:42;;;;;;;11.37;8.40;;;;;;;13.60;100.00;95901.06;5034569;28;20041;-77
2022/09/24 09:13:24;;;;;;;11.40;8.10;;;;;;;13.76;100.00;95905.28;5031681;28;20776;-76
2022/09/24 09:16:02;;;;;;;11.47;7.47;;;;;;;13.89;100.00;95906.25;5035584;28;20038;-76
2022/09/24 09:18:40;;;;;;;15.60;8.93;;;;;;;13.81;100.00;95902.91;5032213;28;20025;-77
2022/09/24 09:21:16;;;;;;;11.70;7.83;;;;;;;13.71;100.00;95899.75;5037257;28;20659;-75
2022/09/24 09:23:48;;;;;;;11.63;7.50;;;;;;;13.70;100.00;95896.28;5032475;28;20057;-76
2022/09/24 09:26:19;;;;;;;10.80;7.50;;;;;;;13.90;100.00;95910.53;5027210;28;20028;-77
2022/09/24 09:28:46;;;;;;;10.63;8.07;;;;;;;13.96;100.00;95897.56;5027564;28;21316;-76
2022/09/24 09:31:17;;;;;;;13.50;7.23;;;;;;;13.94;100.00;95903.03;5000414;28;20036;-76
2022/09/24 09:34:07;;;;;;;12.30;7.60;;;;;;;13.86;100.00;95906.63;5001042;28;20042;-76
2022/09/24 09:36:53;;;;;;;12.07;7.90;;;;;;;13.85;100.00;95907.63;4997371;28;20079;-76
2022/09/24 09:39:31;;;;;;;14.67;8.20;;;;;;;14.07;100.00;95899.72;4993808;28;20047;-75
2022/09/24 09:42:02;;;;;;;10.70;7.67;;;;;;;14.38;100.00;95894.91;5001129;28;20024;-76
2022/09/24 09:44:29;;;;;;;12.33;8.13;;;;;;;14.30;100.00;95907.44;5002417;28;20025;-76
2022/09/24 09:47:11;;;;;;;12.07;8.23;;;;;;;14.31;100.00;95907.25;5003729;28;20040;-76
2022/09/24 09:49:39;;;;;;;9.90;7.87;;;;;;;14.30;100.00;95894.22;4971739;28;20086;-76
2022/09/24 09:52:12;;;;;;;12.37;7.87;;;;;;;14.50;100.00;95894.38;4990592;28;20592;-74
2022/09/24 09:54:40;;;;;;;12.27;7.73;;;;;;;14.63;100.00;95893.69;4994530;28;20032;-76
2022/09/24 09:57:13;;;;;;;12.40;7.83;;;;;;;14.80;100.00;95897.69;4994583;28;21092;-74
2022/09/24 09:59:39;;;;;;;9.95;8.30;;;;;;;14.62;100.00;95895.53;5006148;28;20039;-74
2022/09/24 10:02:10;;;;;;;9.02;6.72;;;;;;;14.69;100.00;95891.09;5031659;28;20146;-76
2022/09/24 10:04:42;;;;;;;11.00;7.22;;;;;;;15.05;100.00;95884.78;5041864;28;20393;-74
2022/09/24 10:07:13;;;;;;;13.70;6.63;;;;;;;15.22;100.00;95877.34;5035856;28;20040;-74
2022/09/24 10:09:43;;;;;;;9.43;6.13;;;;;;;15.32;100.00;95875.97;5035399;28;20036;-75
2022/09/24 10:12:21;;;;;;;9.93;6.57;;;;;;;15.11;100.00;95869.94;5037951;28;20052;-75
2022/09/24 10:15:17;;;;;;;11.52;6.53;;;;;;;15.38;100.00;95873.53;5037092;28;20043;-74
2022/09/24 10:17:45;;;;;;;8.30;5.88;;;;;;;15.31;100.00;95881.44;5050419;28;20040;-75
2022/09/24 10:20:26;;;;;;;7.90;5.85;;;;;;;15.52;100.00;95876.03;5056232;28;20087;-75
2022/09/24 10:23:18;;;;;;;10.20;6.82;;;;;;;15.74;100.00;95879.41;5057472;28;20108;-75
2022/09/24 10:25:50;;;;;;;10.50;5.82;;;;;;;15.86;100.00;95881.44;5057792;28;20116;-74
2022/09/24 10:31:12;;;;;;;9.45;5.82;;;;;;;16.17;100.00;95884.38;5059187;28;20042;-75
2022/09/24 10:33:40;;;;;;;8.90;5.53;;;;;;;16.21;100.00;95877.63;5055724;28;20396;-75
2022/09/24 10:36:21;;;;;;;8.60;4.95;;;;;;;16.39;100.00;95876.22;5056353;28;20071;-75
2022/09/24 10:38:48;;;;;;;7.43;4.50;;;;;;;16.65;100.00;95867.44;5056705;28;20416;-74
2022/09/24 10:41:16;;;;;;;7.53;5.28;;;;;;;16.63;100.00;95872.97;5059410;28;20021;-74
2022/09/24 10:43:50;;;;;;;10.90;5.97;;;;;;;16.33;100.00;95874.38;5040787;28;20036;-74
2022/09/24 10:46:40;;;;;;;7.13;5.05;;;;;;;16.54;100.00;95868.06;5041003;28;20029;-76
2022/09/24 10:49:13;;;;;;;7.50;5.40;;;;;;;16.64;100.00;95865.81;5055792;28;20359;-74
2022/09/24 10:51:50;;;;;;;9.18;5.38;;;;;;;16.46;100.00;95861.94;5057687;28;20028;-74
2022/09/24 10:54:37;;;;;;;9.13;6.00;;;;;;;16.57;100.00;95871.13;5036886;28;20044;-74
2022/09/24 10:57:33;;;;;;;24.35;11.63;;;;;;;16.39;100.00;95873.56;5019005;28;20087;-74
2022/09/24 11:00:37;;;;;;;10.80;5.28;;;;;;;16.62;100.00;95870.50;5025456;28;20124;-75
2022/09/24 11:03:11;;;;;;;;;;;;;;;16.56;100.00;95877.44;5026027;28;20151;-73
2022/09/24 11:06:11;;;;;;;8.35;5.43;;;;;;;16.40;100.00;95873.38;5041021;28;19961;-74
2022/09/24 11:08:55;;;;;;;11.75;4.90;;;;;;;16.42;100.00;95876.63;5023992;28;20032;-74
2022/09/24 11:11:29;;;;;;;9.40;4.80;;;;;;;16.32;100.00;95880.69;5026698;28;20048;-73
2022/09/24 11:14:02;;;;;;;7.65;4.93;;;;;;;16.70;100.00;95875.59;5025250;28;20072;-73
2022/09/24 11:17:02;;;;;;;7.30;4.57;;;;;;;16.43;100.00;95874.78;5024417;28;20062;-74
2022/09/24 11:19:40;;;;;;;6.60;4.38;;;;;;;16.26;100.00;95874.38;5024687;28;20181;-74
2022/09/24 11:22:37;;;;;;;7.45;4.93;;;;;;;16.49;100.00;95866.00;5026747;28;20064;-73
2022/09/24 11:25:32;;;;;;;11.20;5.40;;;;;;;16.58;100.00;95870.09;5018700;28;20046;-74
2022/09/24 11:28:17;;;;;;;9.02;5.07;;;;;;;16.56;100.00;95869.47;4997288;28;20451;-75
2022/09/24 11:30:57;;;;;;;7.20;5.00;;;;;;;16.58;100.00;95864.78;4987541;28;20190;-74
2022/09/24 11:33:26;;;;;;;10.85;6.22;;;;;;;16.42;100.00;95866.00;4977498;28;20044;-74
2022/09/24 11:35:56;;;;;;;6.68;4.32;;;;;;;16.53;100.00;95866.41;4959148;28;20585;-74
2022/09/24 11:38:37;;;;;;;7.05;4.75;;;;;;;16.54;100.00;95860.91;4956320;28;21405;-74
2022/09/24 11:41:17;;;;;;;5.70;4.30;;;;;;;16.62;100.00;95862.53;4959900;28;20610;-72
2022/09/24 11:43:54;;;;;;;7.35;4.78;;;;;;;16.58;100.00;95864.78;4959274;28;20091;-76
2022/09/24 11:47:15;;;;;;;6.00;4.13;;;;;;;16.82;100.00;95859.88;4954505;28;20060;-74
2022/09/24 11:50:28;;;;;;;5.88;4.13;;;;;;;16.65;100.00;95860.28;4954127;28;20131;-75
2022/09/24 11:53:16;;;;;;;9.05;4.95;;;;;;;16.40;100.00;95859.28;4952454;28;23814;-75